Terminal Aerodrome Forecast
Issued by NWS Jacksonville, FL

Home | Current Version | Previous Version | Text Only | Print | Product List | Glossary On
Versions: 1 2 3 4 5 6 7 8 9 10 11 12 13 14 15 16 17 18 19 20 21 22 23
000
FTUS42 KJAX 222327
TAFJAX
TAF
KJAX 222327Z 2300/2324 19006KT P6SM FEW006 SCT090 BKN250
     FM230200 22004KT P6SM SCT150 BKN250
     FM231200 23004KT P6SM SCT050 BKN250
     FM231400 24006KT P6SM VCSH SCT025 BKN050 OVC100
     FM231600 24008KT P6SM -SHRA SCT030 BKN045 OVC060
      TEMPO 2317/2321 24015G25KT -TSRA FEW010 SCT020 BKN030CB
     FM232200 18007KT P6SM VCSH FEW020 SCT030 BKN250=

USA.gov is the U.S. government's official web portal to all federal, state and local government web resources and services.